Time;durP1;ratioP1;P1;durP2;ratioP2;P2;SDS_P1;SDS_P2;PMS_P1;PMS_P2;Temp;Humidity;BMP_temperature;BMP_pressure;BME280_temperature;BME280_humidity;BME280_pressure;Samples;Min_cycle;Max_cycle;Signal;HPM_P1;HPM_P2
2021/07/13 00:02:04;;;;;;;24.50;14.83;;;;;;;23.97;98.86;100667.02;1736913;80;21080;-58
2021/07/13 00:04:32;;;;;;;20.70;13.80;;;;;;;23.94;99.24;100671.41;1731719;81;20964;-58
2021/07/13 00:07:01;;;;;;;23.85;14.53;;;;;;;23.93;99.90;100660.11;1724164;81;21115;-58
2021/07/13 00:09:29;;;;;;;31.97;14.33;;;;;;;23.91;100.00;100656.64;1737407;80;20992;-58
2021/07/13 00:11:56;;;;;;;23.47;14.15;;;;;;;23.88;100.00;100655.08;1694470;82;21088;-58
2021/07/13 00:14:23;;;;;;;35.90;15.10;;;;;;;23.86;100.00;100648.01;1730139;80;20953;-58
2021/07/13 00:16:51;;;;;;;40.23;14.53;;;;;;;23.85;100.00;100642.17;1727413;81;20894;-58
2021/07/13 00:19:18;;;;;;;51.45;15.10;;;;;;;23.83;100.00;100641.45;1731155;80;20886;-59
2021/07/13 00:21:44;;;;;;;69.72;16.25;;;;;;;23.81;100.00;100648.95;1728002;81;21150;-60
2021/07/13 00:24:10;;;;;;;68.97;16.42;;;;;;;23.78;99.99;100647.88;1730701;81;21032;-59
2021/07/13 00:26:37;;;;;;;53.52;17.42;;;;;;;23.72;99.08;100640.56;1731814;81;21040;-58
2021/07/13 00:29:06;;;;;;;36.03;17.07;;;;;;;23.65;98.09;100639.42;1692469;83;21501;-60
2021/07/13 00:31:34;;;;;;;36.68;15.60;;;;;;;23.60;97.31;100634.36;1733088;80;20917;-58
2021/07/13 00:34:01;;;;;;;30.20;18.12;;;;;;;23.53;96.66;100640.53;1729288;81;21135;-58
2021/07/13 00:36:28;;;;;;;24.63;16.75;;;;;;;23.43;95.87;100637.30;1734948;81;21508;-57
2021/07/13 00:38:54;;;;;;;29.72;15.20;;;;;;;23.33;95.67;100629.58;1735284;81;21048;-57
2021/07/13 00:41:20;;;;;;;30.43;14.83;;;;;;;23.26;95.54;100627.02;1735532;80;21573;-58
2021/07/13 00:43:49;;;;;;;28.47;14.60;;;;;;;23.23;95.49;100623.17;1692586;83;21402;-58
2021/07/13 00:46:16;;;;;;;28.50;15.10;;;;;;;23.18;95.78;100621.73;1735198;81;21164;-59
2021/07/13 00:48:43;;;;;;;29.18;14.65;;;;;;;23.16;95.97;100629.20;1734612;81;20941;-58
2021/07/13 00:51:10;;;;;;;23.00;14.93;;;;;;;23.14;95.69;100632.59;1736719;81;21132;-63
2021/07/13 00:53:41;;;;;;;31.10;16.00;;;;;;;23.09;95.47;100630.75;1751138;79;20964;-62
2021/07/13 00:56:08;;;;;;;34.75;16.52;;;;;;;22.99;95.12;100618.92;1752256;79;21034;-62
2021/07/13 00:58:34;;;;;;;23.15;16.15;;;;;;;22.89;95.30;100623.87;1770611;79;21070;-62
2021/07/13 01:01:03;;;;;;;29.52;16.73;;;;;;;22.80;95.54;100626.03;1777138;79;21474;-58
2021/07/13 01:03:30;;;;;;;30.55;15.98;;;;;;;22.71;95.56;100620.03;1776540;79;20942;-58
2021/07/13 01:05:56;;;;;;;27.40;17.10;;;;;;;22.60;96.26;100621.84;1778522;79;20910;-58
2021/07/13 01:08:48;;;;;;;34.78;17.25;;;;;;;22.52;96.53;100609.37;1769484;79;21357;-58
2021/07/13 01:11:47;;;;;;;35.85;18.87;;;;;;;22.50;97.31;100608.64;1773663;79;21814;-58
2021/07/13 01:14:43;;;;;;;35.28;18.25;;;;;;;22.51;97.90;100609.00;1778805;79;20977;-58
2021/07/13 01:17:14;;;;;;;38.80;18.77;;;;;;;22.53;98.15;100612.46;1772881;79;21089;-59
2021/07/13 01:20:32;;;;;;;33.88;18.95;;;;;;;22.52;97.82;100612.09;1773893;79;20922;-58
2021/07/13 01:23:09;;;;;;;37.45;19.35;;;;;;;22.49;97.66;100615.11;1774332;79;22368;-58
2021/07/13 01:25:43;;;;;;;39.38;22.58;;;;;;;22.44;98.01;100612.73;1770847;79;21844;-58
2021/07/13 01:28:16;;;;;;;;;;;;;;;22.43;98.20;100610.13;1779409;79;21235;-58
2021/07/13 01:30:46;;;;;;;54.42;24.00;;;;;;;22.40;98.55;100618.11;1772967;79;20132;-58
2021/07/13 01:33:17;;;;;;;36.58;20.05;;;;;;;22.36;98.66;100611.19;1779036;79;21283;-58
2021/07/13 01:36:04;;;;;;;48.45;19.05;;;;;;;22.32;98.93;100618.77;1772964;79;21135;-58
2021/07/13 01:38:33;;;;;;;96.10;21.30;;;;;;;22.30;99.01;100634.43;1775972;79;21905;-58
2021/07/13 01:41:07;;;;;;;41.37;18.95;;;;;;;22.29;99.27;100634.06;1775580;79;21407;-58
2021/07/13 01:43:40;;;;;;;48.98;20.37;;;;;;;22.29;99.47;100631.33;1778485;79;21557;-58
2021/07/13 01:46:08;;;;;;;53.30;19.95;;;;;;;22.30;99.49;100624.88;1779010;79;20902;-57
2021/07/13 01:48:36;;;;;;;55.17;20.68;;;;;;;22.29;99.41;100627.23;1770996;79;21445;-58
2021/07/13 01:51:05;;;;;;;50.92;19.12;;;;;;;22.28;99.00;100618.69;1771152;79;20997;-58
2021/07/13 01:53:33;;;;;;;57.33;19.02;;;;;;;22.30;98.72;100622.63;1739634;80;20958;-57
2021/07/13 01:56:01;;;;;;;44.33;19.73;;;;;;;22.31;98.56;100617.05;1709580;82;20989;-57
2021/07/13 01:58:29;;;;;;;50.52;19.55;;;;;;;22.34;98.28;100622.75;1710090;82;20993;-58
2021/07/13 02:00:59;;;;;;;58.28;19.30;;;;;;;22.37;98.19;100629.79;1711659;82;21044;-58
2021/07/13 02:03:26;;;;;;;62.23;19.00;;;;;;;22.37;98.10;100631.16;1713562;82;21898;-58
2021/07/13 02:05:55;;;;;;;52.95;19.05;;;;;;;22.36;98.10;100633.52;1711322;82;20954;-58
2021/07/13 02:08:22;;;;;;;67.40;20.20;;;;;;;22.33;97.92;100640.14;1712091;82;21616;-61
2021/07/13 02:10:49;;;;;;;51.33;18.95;;;;;;;22.31;97.91;100639.38;1708296;82;21513;-58
2021/07/13 02:13:18;;;;;;;39.10;18.60;;;;;;;22.28;98.22;100635.55;1703433;82;21427;-58
2021/07/13 02:15:46;;;;;;;37.13;19.77;;;;;;;22.27;98.49;100641.53;1703876;82;20932;-58
2021/07/13 02:18:13;;;;;;;47.13;19.60;;;;;;;22.24;98.71;100654.09;1719583;81;21328;-58
2021/07/13 02:20:40;;;;;;;56.48;19.60;;;;;;;22.23;98.89;100660.55;1772099;79;21521;-58
2021/07/13 02:23:11;;;;;;;61.58;21.10;;;;;;;22.22;98.91;100656.09;1781222;79;21352;-58
2021/07/13 02:25:40;;;;;;;58.92;18.92;;;;;;;22.18;99.05;100648.65;1775939;79;20946;-58
2021/07/13 02:28:23;;;;;;;62.05;19.73;;;;;;;22.17;99.45;100663.78;1731412;80;21092;-58
2021/07/13 02:30:52;;;;;;;81.00;20.35;;;;;;;22.18;99.63;100665.52;1703581;82;21029;-58
2021/07/13 02:33:28;;;;;;;48.28;17.85;;;;;;;22.15;99.13;100672.60;1688462;83;21490;-58
2021/07/13 02:36:00;;;;;;;50.33;19.32;;;;;;;22.13;98.91;100671.88;1710474;82;21489;-58
2021/07/13 02:38:26;;;;;;;49.53;17.85;;;;;;;22.12;98.70;100672.39;1708995;82;21984;-58
2021/07/13 02:40:52;;;;;;;38.17;17.27;;;;;;;22.10;97.85;100665.31;1775053;79;21067;-58
2021/07/13 02:43:21;;;;;;;78.57;17.90;;;;;;;22.07;96.67;100672.41;1777086;78;21434;-58
2021/07/13 02:45:51;;;;;;;73.40;16.30;;;;;;;22.03;95.05;100674.52;1777075;79;21012;-57
2021/07/13 02:48:17;;;;;;;79.97;17.57;;;;;;;22.00;94.21;100674.78;1741771;80;21362;-61
2021/07/13 02:50:44;;;;;;;65.00;17.82;;;;;;;22.01;93.46;100674.67;1737727;81;21040;-61
2021/07/13 02:53:11;;;;;;;81.53;17.00;;;;;;;22.02;93.00;100678.25;1734977;80;21053;-61
2021/07/13 02:55:39;;;;;;;54.38;16.17;;;;;;;22.02;92.76;100673.67;1698232;82;21408;-61
2021/07/13 02:58:06;;;;;;;51.20;15.43;;;;;;;22.01;92.18;100673.78;1706469;82;21059;-61
2021/07/13 03:00:33;;;;;;;65.42;15.88;;;;;;;22.00;91.99;100674.30;1706713;82;21062;-61
2021/07/13 03:03:00;;;;;;;41.90;14.65;;;;;;;22.00;92.13;100682.97;1707953;82;21131;-61
2021/07/13 03:05:27;;;;;;;47.27;15.93;;;;;;;21.98;92.25;100683.09;1706421;82;21494;-61
2021/07/13 03:07:53;;;;;;;51.65;16.17;;;;;;;21.97;92.22;100679.14;1708590;82;20934;-60
2021/07/13 03:10:24;;;;;;;36.03;14.25;;;;;;;21.95;91.77;100670.22;1710030;82;20898;-63
2021/07/13 03:12:54;;;;;;;43.80;16.12;;;;;;;21.96;90.81;100670.08;1730188;81;21088;-63
2021/07/13 03:15:27;;;;;;;44.18;15.55;;;;;;;21.99;90.60;100673.91;1726587;81;21056;-63
2021/07/13 03:17:54;;;;;;;34.20;15.03;;;;;;;22.06;90.13;100677.50;1711339;82;22205;-63
2021/07/13 03:20:23;;;;;;;28.45;14.10;;;;;;;22.13;89.37;100671.88;1725435;81;21557;-64
2021/07/13 03:22:52;;;;;;;27.00;13.65;;;;;;;22.18;88.81;100669.61;1749503;79;21016;-63
2021/07/13 03:25:28;;;;;;;25.37;14.38;;;;;;;22.24;88.29;100666.86;1728104;81;20892;-64
2021/07/13 03:27:57;;;;;;;40.00;16.23;;;;;;;22.29;87.48;100672.30;1768890;79;20914;-63
2021/07/13 03:30:24;;;;;;;31.48;13.90;;;;;;;22.39;87.21;100666.02;1782191;79;21979;-63
2021/07/13 03:32:52;;;;;;;18.55;12.15;;;;;;;22.45;86.23;100669.09;1777457;79;21311;-63
2021/07/13 03:35:21;;;;;;;18.98;12.47;;;;;;;22.54;84.77;100671.56;1731964;81;20906;-63
2021/07/13 03:37:49;;;;;;;22.82;11.97;;;;;;;22.67;83.52;100678.18;1714167;82;20954;-63
2021/07/13 03:40:18;;;;;;;18.48;11.55;;;;;;;22.80;82.11;100669.77;1722455;81;21001;-63
2021/07/13 03:42:45;;;;;;;19.27;11.65;;;;;;;22.93;80.63;100672.79;1770645;79;21137;-63
2021/07/13 03:45:15;;;;;;;18.73;11.30;;;;;;;23.01;79.88;100671.59;1775692;79;21045;-63
2021/07/13 03:47:44;;;;;;;27.15;12.20;;;;;;;23.06;79.82;100676.66;1732928;81;20878;-63
2021/07/13 03:50:13;;;;;;;24.12;11.48;;;;;;;23.11;80.12;100687.55;1687447;83;20959;-63
2021/07/13 03:52:41;;;;;;;16.17;10.03;;;;;;;23.17;78.38;100682.89;1774369;79;20917;-64
2021/07/13 03:55:09;;;;;;;16.30;10.00;;;;;;;23.26;77.02;100685.82;1776150;79;21489;-63
2021/07/13 03:57:36;;;;;;;13.50;10.25;;;;;;;23.32;76.69;100690.73;1776832;79;20964;-64
2021/07/13 04:00:10;;;;;;;14.90;10.53;;;;;;;23.39;76.11;100696.03;1775218;79;21590;-64
2021/07/13 04:02:40;;;;;;;17.02;9.83;;;;;;;23.43;75.43;100682.91;1773630;79;20966;-65
2021/07/13 04:05:07;;;;;;;20.30;9.38;;;;;;;23.45;74.96;100688.63;1777341;79;21800;-63
2021/07/13 04:07:35;;;;;;;13.08;9.50;;;;;;;23.45;74.83;100685.89;1775387;79;21403;-65
2021/07/13 04:10:05;;;;;;;21.68;9.35;;;;;;;23.43;74.81;100685.16;1777728;79;20960;-62
2021/07/13 04:12:31;;;;;;;19.87;9.23;;;;;;;23.44;74.67;100689.63;1776811;79;21529;-63
2021/07/13 04:14:59;;;;;;;22.75;9.83;;;;;;;23.45;74.46;100691.36;1775909;79;20933;-63
2021/07/13 04:17:26;;;;;;;25.23;9.73;;;;;;;23.46;74.32;100696.34;1775334;79;20981;-62
2021/07/13 04:19:54;;;;;;;16.35;10.15;;;;;;;23.44;74.46;100685.53;1736289;80;20957;-62
2021/07/13 04:22:22;;;;;;;14.43;10.60;;;;;;;23.43;74.67;100692.01;1738463;80;21535;-64
2021/07/13 04:24:50;;;;;;;14.10;10.45;;;;;;;23.41;75.54;100698.13;1706831;82;21009;-65
2021/07/13 04:27:16;;;;;;;14.83;10.98;;;;;;;23.36;77.60;100692.20;1705331;82;20942;-62
2021/07/13 04:29:43;;;;;;;14.60;10.82;;;;;;;23.31;79.19;100695.84;1771064;79;21052;-62
2021/07/13 04:32:09;;;;;;;18.05;11.38;;;;;;;23.25;79.76;100687.70;1776458;79;21398;-62
2021/07/13 04:34:36;;;;;;;13.85;10.55;;;;;;;23.22;80.45;100693.91;1779199;79;20921;-63
2021/07/13 04:37:04;;;;;;;13.85;10.68;;;;;;;23.20;81.10;100712.33;1773140;79;21939;-63
2021/07/13 04:39:30;;;;;;;15.83;11.03;;;;;;;23.16;82.01;100707.14;1773943;79;21375;-65
2021/07/13 04:41:57;;;;;;;14.65;10.75;;;;;;;23.16;82.30;100704.41;1780139;78;21011;-67
2021/07/13 04:44:23;;;;;;;17.60;11.18;;;;;;;23.13;82.30;100703.31;1774526;79;21750;-63
2021/07/13 04:46:49;;;;;;;16.30;11.20;;;;;;;23.12;82.08;100704.32;1772599;79;21391;-65
2021/07/13 04:49:16;;;;;;;16.52;11.10;;;;;;;23.10;82.14;100713.17;1771760;79;20968;-64
2021/07/13 04:51:43;;;;;;;15.90;11.25;;;;;;;23.11;82.04;100723.10;1774874;79;20912;-65
2021/07/13 04:54:09;;;;;;;16.73;10.65;;;;;;;23.10;82.45;100727.32;1776017;79;20970;-65
2021/07/13 04:56:37;;;;;;;14.60;10.38;;;;;;;23.11;82.49;100739.50;1777824;79;21620;-64
2021/07/13 04:59:03;;;;;;;16.35;10.93;;;;;;;23.13;82.54;100734.77;1774252;79;21075;-64
2021/07/13 05:01:30;;;;;;;15.75;11.05;;;;;;;23.15;82.15;100745.06;1773149;79;20902;-64
2021/07/13 05:03:56;;;;;;;18.12;11.70;;;;;;;23.15;82.73;100756.00;1742711;80;20993;-64
2021/07/13 05:06:24;;;;;;;19.00;9.60;;;;;;;23.23;83.42;100771.73;1712025;82;21045;-65
2021/07/13 05:08:51;;;;;;;25.80;10.53;;;;;;;23.26;83.17;100778.33;1733573;80;20957;-64
2021/07/13 05:11:17;;;;;;;12.80;9.28;;;;;;;23.30;84.22;100752.91;1703286;82;20989;-64
2021/07/13 05:13:45;;;;;;;18.32;9.08;;;;;;;23.34;84.04;100748.92;1707777;82;21398;-64
2021/07/13 05:16:12;;;;;;;17.57;9.20;;;;;;;23.38;83.40;100756.34;1708823;82;21060;-64
2021/07/13 05:18:40;;;;;;;24.98;9.38;;;;;;;23.39;81.93;100760.31;1780632;79;21774;-64
2021/07/13 05:21:09;;;;;;;22.27;9.83;;;;;;;23.42;81.59;100740.88;1773741;79;20965;-64
2021/07/13 05:23:37;;;;;;;15.35;10.20;;;;;;;23.44;81.67;100730.67;1776587;79;21016;-65
2021/07/13 05:26:04;;;;;;;24.12;9.83;;;;;;;23.49;81.23;100732.11;1776670;79;21075;-64
2021/07/13 05:28:30;;;;;;;12.23;8.70;;;;;;;23.52;80.43;100737.30;1726787;81;21009;-64
2021/07/13 05:31:00;;;;;;;15.13;9.55;;;;;;;23.55;80.25;100723.38;1733114;80;21451;-64
2021/07/13 05:33:26;;;;;;;19.85;8.63;;;;;;;23.63;80.42;100718.06;1734083;80;21450;-64
2021/07/13 05:35:53;;;;;;;14.63;9.28;;;;;;;23.77;80.65;100733.73;1745215;80;21434;-63
2021/07/13 05:38:19;;;;;;;13.75;9.43;;;;;;;23.92;80.29;100725.45;1740546;80;21474;-64
2021/07/13 05:40:46;;;;;;;16.00;8.80;;;;;;;24.12;80.41;100736.46;1719620;81;21084;-64
2021/07/13 05:43:14;;;;;;;19.35;9.70;;;;;;;24.33;78.86;100745.93;1721161;82;21132;-64
2021/07/13 05:45:42;;;;;;;13.65;9.58;;;;;;;24.55;78.67;100739.79;1774198;79;21557;-64
2021/07/13 05:48:08;;;;;;;9.83;8.65;;;;;;;24.72;77.45;100735.44;1773322;79;21514;-64
2021/07/13 05:50:35;;;;;;;12.63;8.90;;;;;;;24.82;76.93;100742.30;1773401;79;21847;-63
2021/07/13 05:53:02;;;;;;;11.10;9.03;;;;;;;24.89;76.48;100745.68;1773637;79;21537;-63
2021/07/13 05:55:28;;;;;;;16.20;9.28;;;;;;;24.96;75.69;100734.11;1769353;79;21519;-63
2021/07/13 05:57:55;;;;;;;14.60;9.40;;;;;;;25.05;75.91;100741.43;1763922;79;21596;-64
2021/07/13 06:00:21;;;;;;;11.65;8.88;;;;;;;25.11;75.74;100732.63;1759531;79;20995;-63
2021/07/13 06:02:48;;;;;;;10.35;8.70;;;;;;;25.23;75.34;100735.17;1764577;79;21063;-62
2021/07/13 06:05:14;;;;;;;12.95;10.03;;;;;;;25.37;75.23;100741.55;1766383;79;21155;-63
2021/07/13 06:07:46;;;;;;;14.40;9.50;;;;;;;25.55;73.99;100743.53;1761380;79;21076;-64
2021/07/13 06:10:13;;;;;;;15.43;10.08;;;;;;;25.66;73.45;100739.19;1761826;79;21062;-65
2021/07/13 06:12:41;;;;;;;13.43;9.38;;;;;;;25.79;72.84;100734.70;1756443;79;20933;-64
2021/07/13 06:15:11;;;;;;;12.93;9.90;;;;;;;25.92;72.31;100734.33;1763281;79;21589;-64
2021/07/13 06:17:42;;;;;;;12.37;10.40;;;;;;;26.03;71.84;100742.85;1760509;79;21087;-66
2021/07/13 06:20:11;;;;;;;14.55;10.40;;;;;;;26.10;71.03;100745.84;1763713;79;21130;-60
2021/07/13 06:22:37;;;;;;;15.60;11.10;;;;;;;26.10;71.17;100743.09;1757237;79;21118;-60
2021/07/13 06:25:05;;;;;;;20.37;12.53;;;;;;;26.05;71.36;100739.96;1757424;79;21068;-60
2021/07/13 06:27:32;;;;;;;17.52;12.70;;;;;;;26.00;70.98;100763.77;1713745;81;21444;-60
2021/07/13 06:29:58;;;;;;;21.77;12.63;;;;;;;25.88;70.65;100744.78;1760527;79;20922;-60
2021/07/13 06:32:25;;;;;;;16.73;12.33;;;;;;;25.81;70.99;100768.88;1763929;79;21534;-64
2021/07/13 06:34:51;;;;;;;14.93;12.50;;;;;;;25.73;70.98;100762.25;1762364;79;21107;-66
2021/07/13 06:37:18;;;;;;;17.30;12.00;;;;;;;25.63;71.06;100756.46;1760920;79;21418;-59
2021/07/13 06:39:45;;;;;;;20.15;13.13;;;;;;;25.58;71.72;100754.20;1764094;79;21500;-60
2021/07/13 06:42:15;;;;;;;14.55;12.30;;;;;;;25.61;72.15;100749.77;1764877;79;21014;-60
2021/07/13 06:44:42;;;;;;;21.00;14.38;;;;;;;25.64;71.60;100756.33;1766287;79;21436;-60
2021/07/13 06:47:09;;;;;;;16.57;13.70;;;;;;;25.67;72.51;100757.38;1765383;79;22094;-65
2021/07/13 06:49:40;;;;;;;22.07;15.15;;;;;;;25.79;72.35;100749.80;1715539;81;21081;-65
2021/07/13 06:52:07;;;;;;;19.62;14.93;;;;;;;25.94;72.37;100778.97;1762442;79;21478;-59
2021/07/13 06:54:34;;;;;;;16.77;12.95;;;;;;;26.07;70.58;100766.23;1713090;81;20948;-59
2021/07/13 06:57:00;;;;;;;17.75;13.68;;;;;;;26.08;71.37;100756.97;1743836;80;21545;-61
2021/07/13 06:59:26;;;;;;;19.42;14.03;;;;;;;26.16;70.83;100763.06;1739576;80;21754;-62
2021/07/13 07:01:58;;;;;;;19.62;14.43;;;;;;;26.27;69.75;100762.89;1733695;80;21595;-59
2021/07/13 07:04:25;;;;;;;24.45;14.70;;;;;;;26.27;67.89;100768.38;1738426;80;20923;-59
2021/07/13 07:06:51;;;;;;;18.70;13.40;;;;;;;26.20;67.65;100763.17;1741899;80;21086;-65
2021/07/13 07:09:18;;;;;;;17.92;13.90;;;;;;;26.07;67.32;100777.75;1711596;82;21634;-65
2021/07/13 07:11:44;;;;;;;20.97;13.40;;;;;;;25.92;68.94;100761.78;1717550;82;22141;-59
2021/07/13 07:14:13;;;;;;;22.67;13.90;;;;;;;25.85;69.46;100774.42;1715320;82;21738;-59
2021/07/13 07:16:40;;;;;;;17.85;13.88;;;;;;;25.78;69.29;100766.45;1700854;82;21137;-64
2021/07/13 07:19:09;;;;;;;15.65;12.80;;;;;;;25.73;69.86;100758.66;1714456;81;21358;-59
2021/07/13 07:21:36;;;;;;;16.02;12.35;;;;;;;25.68;68.57;100772.84;1741989;80;21707;-59
2021/07/13 07:24:04;;;;;;;14.73;12.23;;;;;;;25.72;68.95;100755.04;1740950;80;21841;-59
2021/07/13 07:29:01;;;;;;;18.40;11.73;;;;;;;25.93;68.70;100756.64;1737195;80;20977;-65
2021/07/13 07:31:27;;;;;;;15.20;12.10;;;;;;;26.06;67.90;100752.15;1736194;80;21050;-65
2021/07/13 07:33:54;;;;;;;13.18;10.23;;;;;;;26.23;68.00;100758.73;1738091;80;21015;-64
2021/07/13 07:36:25;;;;;;;11.73;8.55;;;;;;;26.53;65.18;100766.20;1740143;80;21610;-64
2021/07/13 07:38:50;;;;;;;13.55;9.68;;;;;;;26.79;62.97;100762.63;1737435;80;21153;-66
2021/07/13 07:41:17;;;;;;;15.58;9.20;;;;;;;27.03;61.83;100763.36;1736870;80;21043;-65
2021/07/13 07:43:43;;;;;;;14.13;9.90;;;;;;;27.22;60.96;100753.16;1741030;81;21461;-59
2021/07/13 07:46:10;;;;;;;12.23;9.88;;;;;;;27.40;60.21;100762.70;1737910;80;21063;-60
2021/07/13 07:48:38;;;;;;;15.78;10.13;;;;;;;27.57;59.48;100754.56;1745376;80;21401;-59
2021/07/13 07:51:05;;;;;;;12.05;9.95;;;;;;;27.64;59.01;100750.11;1741835;80;20980;-65
2021/07/13 07:53:54;;;;;;;12.95;10.30;;;;;;;27.66;58.44;100761.81;1742811;80;21637;-65
2021/07/13 07:56:21;;;;;;;13.50;10.18;;;;;;;27.60;59.01;100759.73;1756199;79;20996;-65
2021/07/13 07:58:48;;;;;;;15.50;11.57;;;;;;;27.54;59.08;100781.05;1773176;78;21065;-66
2021/07/13 08:01:14;;;;;;;14.63;11.83;;;;;;;27.42;59.87;100774.95;1770828;79;21384;-60
2021/07/13 08:03:41;;;;;;;16.45;11.83;;;;;;;27.30;61.26;100771.58;1773962;79;21072;-60
2021/07/13 08:06:08;;;;;;;17.12;11.93;;;;;;;27.27;61.83;100787.05;1771120;79;20953;-65
2021/07/13 08:08:35;;;;;;;16.32;12.70;;;;;;;27.22;61.85;100775.67;1774873;79;21545;-66
2021/07/13 08:11:02;;;;;;;18.90;13.05;;;;;;;27.12;63.29;100773.91;1769718;79;21057;-65
2021/07/13 08:13:29;;;;;;;17.52;12.03;;;;;;;27.06;63.18;100781.41;1767825;79;21588;-67
2021/07/13 08:15:57;;;;;;;17.00;13.05;;;;;;;27.01;63.87;100760.41;1772461;79;20983;-61
2021/07/13 08:18:27;;;;;;;14.18;11.93;;;;;;;27.01;63.27;100764.53;1774302;79;20922;-63
2021/07/13 08:20:56;;;;;;;15.63;12.50;;;;;;;26.98;64.16;100757.98;1771357;79;20976;-63
2021/07/13 08:23:22;;;;;;;15.70;12.75;;;;;;;27.01;64.28;100768.17;1774626;79;21541;-62
2021/07/13 08:25:49;;;;;;;15.08;12.78;;;;;;;27.06;64.54;100758.03;1728497;81;22045;-64
2021/07/13 08:28:16;;;;;;;15.70;12.73;;;;;;;27.10;65.04;100768.20;1771132;79;20980;-64
2021/07/13 08:30:45;;;;;;;14.28;12.45;;;;;;;27.14;64.58;100767.73;1770411;79;20921;-65
2021/07/13 08:33:12;;;;;;;17.02;12.50;;;;;;;27.13;64.74;100767.38;1774747;79;21593;-60
2021/07/13 08:35:39;;;;;;;16.35;11.97;;;;;;;27.09;65.69;100774.23;1771007;79;21028;-66
2021/07/13 08:38:07;;;;;;;14.03;11.12;;;;;;;27.20;65.68;100766.72;1773802;79;20973;-68
2021/07/13 08:40:35;;;;;;;14.45;11.68;;;;;;;27.28;65.75;100770.89;1775434;79;20925;-64
2021/07/13 08:43:03;;;;;;;15.20;11.43;;;;;;;27.34;65.75;100766.63;1776129;79;21412;-66
2021/07/13 08:45:32;;;;;;;13.68;11.60;;;;;;;27.46;66.35;100774.43;1772226;79;21052;-59
2021/07/13 08:47:58;;;;;;;15.83;11.80;;;;;;;27.66;65.73;100772.83;1770463;79;21326;-60
2021/07/13 08:50:27;;;;;;;15.68;11.73;;;;;;;27.73;65.40;100770.28;1770431;79;20905;-59
2021/07/13 08:52:53;;;;;;;13.83;11.40;;;;;;;27.77;65.21;100773.58;1775129;79;21486;-60
2021/07/13 08:55:20;;;;;;;17.23;12.10;;;;;;;27.79;65.11;100768.23;1775231;79;21390;-59
2021/07/13 08:57:46;;;;;;;13.50;11.10;;;;;;;27.77;65.74;100761.18;1772307;79;20901;-60
2021/07/13 09:00:18;;;;;;;11.83;10.45;;;;;;;27.75;65.61;100759.95;1770155;79;21060;-59
2021/07/13 09:03:11;;;;;;;12.58;10.50;;;;;;;27.73;65.34;100765.63;1772812;79;21117;-60
2021/07/13 09:05:42;;;;;;;13.62;11.15;;;;;;;27.72;65.50;100763.89;1769417;79;21618;-60
2021/07/13 09:08:28;;;;;;;18.55;10.68;;;;;;;27.82;66.16;100754.65;1771044;79;21306;-59
2021/07/13 09:11:11;;;;;;;13.32;9.70;;;;;;;27.96;65.81;100759.48;1768728;79;20984;-60
2021/07/13 09:13:58;;;;;;;10.88;9.78;;;;;;;28.05;65.88;100762.28;1753456;79;21862;-59
2021/07/13 09:16:33;;;;;;;15.30;10.10;;;;;;;28.19;64.81;100774.07;1771677;79;20933;-60
2021/07/13 09:19:01;;;;;;;12.75;10.00;;;;;;;28.21;64.52;100767.88;1775939;79;21137;-60
2021/07/13 09:21:34;;;;;;;13.15;10.15;;;;;;;28.23;64.44;100778.20;1730722;80;21017;-60
2021/07/13 09:24:14;;;;;;;14.68;10.43;;;;;;;28.19;64.18;100771.31;1710091;82;21379;-60
2021/07/13 09:26:53;;;;;;;12.65;10.20;;;;;;;28.06;64.57;100777.25;1713963;81;21408;-60
2021/07/13 09:29:36;;;;;;;11.75;10.53;;;;;;;27.96;65.24;100776.02;1711941;81;22002;-60
2021/07/13 09:32:32;;;;;;;13.15;9.73;;;;;;;28.00;65.08;100778.81;1726444;81;21100;-61
2021/07/13 09:35:03;;;;;;;15.30;10.08;;;;;;;28.06;65.08;100783.30;1728474;81;20942;-61
2021/07/13 09:37:47;;;;;;;12.03;9.95;;;;;;;28.11;65.08;100772.63;1729396;81;20912;-60
2021/07/13 09:40:14;;;;;;;12.85;9.55;;;;;;;28.14;64.95;100781.42;1725371;80;20997;-60
2021/07/13 09:42:47;;;;;;;13.58;9.18;;;;;;;28.18;63.46;100779.20;1726408;81;21419;-61
2021/07/13 09:45:32;;;;;;;14.80;9.20;;;;;;;28.17;63.61;100774.73;1736704;81;26694;-62
2021/07/13 09:48:11;;;;;;;11.50;9.28;;;;;;;28.16;62.59;100778.52;1703207;81;21066;-60
2021/07/13 09:50:49;;;;;;;9.88;8.73;;;;;;;28.16;62.80;100784.03;1713522;81;21115;-66
2021/07/13 09:53:20;;;;;;;12.35;9.18;;;;;;;28.13;62.50;100781.58;1713112;81;21494;-64
2021/07/13 09:55:49;;;;;;;12.68;8.80;;;;;;;28.02;62.99;100783.64;1708157;81;21087;-65
2021/07/13 09:58:20;;;;;;;12.65;9.90;;;;;;;27.98;62.58;100779.50;1711698;81;21585;-64
2021/07/13 10:00:50;;;;;;;12.00;8.58;;;;;;;28.04;62.79;100782.07;1725947;81;20918;-64
2021/07/13 10:03:19;;;;;;;10.55;8.83;;;;;;;28.09;62.24;100777.45;1692514;82;21159;-65
2021/07/13 10:05:48;;;;;;;14.63;8.70;;;;;;;28.13;61.95;100786.59;1703675;82;21108;-63
2021/07/13 10:08:15;;;;;;;12.35;8.60;;;;;;;28.19;61.10;100767.18;1708456;82;21787;-63
2021/07/13 10:10:44;;;;;;;9.20;7.42;;;;;;;28.23;60.51;100771.81;1708145;82;21456;-64
2021/07/13 10:13:12;;;;;;;12.45;8.20;;;;;;;28.24;59.34;100775.80;1706738;82;21557;-59
2021/07/13 10:15:40;;;;;;;13.70;8.63;;;;;;;28.26;59.04;100773.73;1711014;82;21419;-60
2021/07/13 10:18:07;;;;;;;10.53;9.20;;;;;;;28.37;59.64;100783.56;1705927;82;21831;-60
2021/07/13 10:20:35;;;;;;;11.50;8.80;;;;;;;28.46;60.13;100785.81;1708308;82;21465;-64
2021/07/13 10:23:04;;;;;;;12.00;9.48;;;;;;;28.50;60.52;100796.84;1704593;82;21016;-64
2021/07/13 10:25:40;;;;;;;12.55;10.08;;;;;;;28.48;60.93;100792.02;1700911;82;21445;-64
2021/07/13 10:31:36;;;;;;;10.55;8.80;;;;;;;28.28;62.93;100787.32;1740022;80;21372;-60
2021/07/13 10:38:21;;;;;;;11.57;9.73;;;;;;;27.99;63.26;100795.00;1797508;77;20939;-65
2021/07/13 10:45:26;;;;;;;10.95;9.50;;;;;;;27.91;65.97;100805.97;1772306;78;21057;-66
2021/07/13 10:52:01;;;;;;;;;;;;;;;27.99;64.81;100795.00;1769804;79;21071;-58
2021/07/13 10:54:48;;;;;;;11.83;8.48;;;;;;;27.98;63.93;100796.03;1738944;80;20716;-60
2021/07/13 11:01:43;;;;;;;10.32;8.28;;;;;;;28.09;63.39;100780.20;1804498;77;22306;-65
2021/07/13 11:12:19;;;;;;;9.50;7.12;;;;;;;28.23;63.41;100779.59;1723426;80;20910;-65
2021/07/13 11:14:51;;;;;;;10.82;8.05;;;;;;;28.26;61.96;100773.73;1673637;83;20916;-60
2021/07/13 11:17:23;;;;;;;9.45;7.80;;;;;;;28.28;62.78;100775.80;1717631;81;20983;-60
2021/07/13 11:19:54;;;;;;;9.60;7.87;;;;;;;28.35;62.19;100773.72;1720271;81;20985;-60
2021/07/13 11:22:20;;;;;;;9.85;8.10;;;;;;;28.35;62.55;100783.38;1717710;81;21482;-60
2021/07/13 11:24:47;;;;;;;11.08;8.03;;;;;;;28.38;61.77;100779.77;1710971;81;21689;-65
2021/07/13 11:27:17;;;;;;;10.08;8.35;;;;;;;28.38;61.71;100776.14;1718335;81;20970;-64
2021/07/13 11:29:52;;;;;;;10.75;8.10;;;;;;;28.41;62.37;100779.96;1719319;81;21501;-64
2021/07/13 11:32:19;;;;;;;11.12;8.28;;;;;;;28.46;61.70;100781.67;1716726;81;20940;-64
2021/07/13 11:34:46;;;;;;;11.45;8.23;;;;;;;28.48;61.97;100776.85;1715817;81;22257;-64
2021/07/13 11:37:27;;;;;;;13.35;9.35;;;;;;;28.53;61.90;100774.97;1718624;81;20940;-64
2021/07/13 11:40:07;;;;;;;13.55;9.03;;;;;;;28.54;61.97;100769.27;1720801;81;20905;-65
2021/07/13 11:42:39;;;;;;;9.65;8.63;;;;;;;28.49;62.40;100780.45;1691758;81;21453;-65
2021/07/13 11:45:07;;;;;;;14.65;8.48;;;;;;;28.48;62.67;100787.88;1716507;81;20968;-64
2021/07/13 11:47:34;;;;;;;10.00;8.58;;;;;;;28.50;62.70;100778.92;1720546;81;22043;-63
2021/07/13 11:50:03;;;;;;;13.38;9.48;;;;;;;28.51;62.46;100783.90;1718972;81;20980;-65
2021/07/13 11:52:29;;;;;;;11.08;8.93;;;;;;;28.48;62.60;100792.02;1718222;81;20869;-64
2021/07/13 11:54:59;;;;;;;11.00;8.93;;;;;;;28.44;62.76;100783.22;1715113;81;20945;-65